createdAt,value
2023-10-10T00:02:12.508Z,44.42
2023-10-10T00:04:38.958Z,44.29
2023-10-10T00:07:05.369Z,44.40
2023-10-10T00:09:31.760Z,44.57
2023-10-10T00:11:58.175Z,44.39
2023-10-10T00:14:24.630Z,44.44
2023-10-10T00:16:50.947Z,44.70
2023-10-10T00:19:17.425Z,44.71
2023-10-10T00:21:43.811Z,44.71
2023-10-10T00:24:10.294Z,44.72
2023-10-10T00:26:36.674Z,44.73
2023-10-10T00:29:03.066Z,44.72
2023-10-10T00:31:29.462Z,44.58
2023-10-10T00:33:55.911Z,44.65
2023-10-10T00:36:22.285Z,44.67
2023-10-10T00:38:48.787Z,44.48
2023-10-10T00:41:15.155Z,44.54
2023-10-10T00:43:41.585Z,44.43
2023-10-10T00:46:07.987Z,44.51
2023-10-10T00:48:34.451Z,44.49
2023-10-10T00:51:00.793Z,44.51
2023-10-10T00:53:27.394Z,44.47
2023-10-10T00:55:53.699Z,44.56
2023-10-10T00:58:20.107Z,44.62
2023-10-10T01:00:46.536Z,44.70
2023-10-10T01:03:13.060Z,44.78
2023-10-10T01:05:39.342Z,44.76
2023-10-10T01:08:05.741Z,44.61
2023-10-10T01:10:32.202Z,44.68
2023-10-10T01:12:58.628Z,44.75
2023-10-10T01:15:24.983Z,44.91
2023-10-10T01:17:51.539Z,44.87
2023-10-10T01:20:17.820Z,44.89
2023-10-10T01:22:44.179Z,44.88
2023-10-10T01:25:10.602Z,44.88
2023-10-10T01:27:37.064Z,44.86
2023-10-10T01:30:03.461Z,44.97
2023-10-10T01:32:29.957Z,44.94
2023-10-10T01:34:56.262Z,45.05
2023-10-10T01:37:22.778Z,45.16
2023-10-10T01:39:49.151Z,45.30
2023-10-10T01:42:15.591Z,45.31
2023-10-10T01:44:42.041Z,45.33
2023-10-10T01:47:08.437Z,45.50
2023-10-10T01:49:37.162Z,45.57
2023-10-10T01:52:03.633Z,45.50
2023-10-10T01:54:29.992Z,45.69
2023-10-10T01:56:56.488Z,45.68
2023-10-10T01:59:22.934Z,45.70
2023-10-10T02:01:49.404Z,45.77
2023-10-10T02:04:15.683Z,45.75
2023-10-10T02:06:42.109Z,45.85
2023-10-10T02:09:08.502Z,45.90
2023-10-10T02:11:34.961Z,45.96
2023-10-10T02:14:01.338Z,46.09
2023-10-10T02:16:27.722Z,46.20
2023-10-10T02:18:54.045Z,46.22
2023-10-10T02:21:20.511Z,46.43
2023-10-10T02:23:46.909Z,46.46
2023-10-10T02:26:13.405Z,46.76
2023-10-10T02:28:39.685Z,46.87
2023-10-10T02:31:06.225Z,47.02
2023-10-10T02:33:32.679Z,47.13
2023-10-10T02:35:59.040Z,47.25
2023-10-10T02:38:25.447Z,47.40
2023-10-10T02:40:51.861Z,47.56
2023-10-10T02:43:18.265Z,47.54
2023-10-10T02:45:44.692Z,47.61
2023-10-10T02:48:11.176Z,47.81
2023-10-10T02:50:37.723Z,47.93
2023-10-10T02:53:04.119Z,48.11
2023-10-10T02:55:30.621Z,48.27
2023-10-10T02:57:57.100Z,48.35
2023-10-10T03:00:23.660Z,48.51
2023-10-10T03:02:50.122Z,48.61
2023-10-10T03:05:17.012Z,48.62
2023-10-10T03:07:42.859Z,48.69
2023-10-10T03:10:09.302Z,48.78
2023-10-10T03:12:35.746Z,48.78
2023-10-10T03:15:02.252Z,48.90
2023-10-10T03:17:28.788Z,49.13
2023-10-10T03:19:55.109Z,49.09
2023-10-10T03:22:21.467Z,49.31
2023-10-10T03:24:47.896Z,49.42
2023-10-10T03:27:14.281Z,49.28
2023-10-10T03:29:40.792Z,49.36
2023-10-10T03:32:07.180Z,49.40
2023-10-10T03:34:33.555Z,49.63
2023-10-10T03:36:59.912Z,49.77
2023-10-10T03:39:26.401Z,49.68
2023-10-10T03:41:52.721Z,49.73
2023-10-10T03:44:19.265Z,49.89
2023-10-10T03:46:45.581Z,49.86
2023-10-10T03:49:12.093Z,49.78
2023-10-10T03:51:38.439Z,49.85
2023-10-10T03:54:04.962Z,49.88
2023-10-10T03:56:31.402Z,49.91
2023-10-10T03:58:57.859Z,50.11
2023-10-10T04:01:24.293Z,50.43
2023-10-10T04:03:50.773Z,50.51
2023-10-10T04:06:17.270Z,50.56
2023-10-10T04:08:43.822Z,50.58
2023-10-10T04:11:10.169Z,50.63
2023-10-10T04:13:36.626Z,50.68
2023-10-10T04:16:02.994Z,50.73
2023-10-10T04:18:29.513Z,50.86
2023-10-10T04:20:55.931Z,51.26
2023-10-10T04:23:22.437Z,51.08
2023-10-10T04:25:48.791Z,51.34
2023-10-10T04:28:15.229Z,51.55
2023-10-10T04:30:41.622Z,51.77
2023-10-10T04:33:08.143Z,52.00
2023-10-10T04:35:34.490Z,52.07
2023-10-10T04:38:01.054Z,52.29
2023-10-10T04:40:27.323Z,52.52
2023-10-10T04:42:53.766Z,59.86
2023-10-10T04:45:20.148Z,62.56
2023-10-10T04:47:46.716Z,63.10
2023-10-10T04:50:13.038Z,63.54
2023-10-10T04:52:39.435Z,62.91
2023-10-10T04:55:05.795Z,61.16
2023-10-10T04:57:32.335Z,60.27
2023-10-10T04:59:58.749Z,60.44
2023-10-10T05:02:25.267Z,60.58
2023-10-10T05:04:51.519Z,60.64
2023-10-10T05:07:18.063Z,60.41
2023-10-10T05:09:44.453Z,60.67
2023-10-10T05:12:10.949Z,60.88
2023-10-10T05:14:37.422Z,61.04
2023-10-10T05:17:03.783Z,61.15
2023-10-10T05:19:30.115Z,60.96
2023-10-10T05:21:56.594Z,60.97
2023-10-10T05:24:22.982Z,60.97
2023-10-10T05:26:49.443Z,61.07
2023-10-10T05:29:15.811Z,61.41
2023-10-10T05:31:42.352Z,62.00
2023-10-10T05:34:08.691Z,61.50
2023-10-10T05:36:35.162Z,61.56
2023-10-10T05:39:01.514Z,61.58
2023-10-10T05:41:28.110Z,61.41
2023-10-10T05:43:54.454Z,61.60
2023-10-10T05:46:20.913Z,61.80
2023-10-10T05:48:47.268Z,61.77
2023-10-10T05:51:13.911Z,61.57
2023-10-10T05:53:40.554Z,61.35
2023-10-10T05:56:07.079Z,60.92
2023-10-10T05:58:33.412Z,60.72
2023-10-10T06:01:00.083Z,60.47
2023-10-10T06:03:26.473Z,60.51
2023-10-10T06:05:52.957Z,59.98
2023-10-10T06:08:19.364Z,59.93
2023-10-10T06:10:45.717Z,60.09
2023-10-10T06:13:12.161Z,60.42
2023-10-10T06:15:38.606Z,60.64
2023-10-10T06:18:05.076Z,60.49
2023-10-10T06:20:31.489Z,60.10
2023-10-10T06:22:57.904Z,60.07
2023-10-10T06:25:24.291Z,59.59
2023-10-10T06:27:50.706Z,59.29
2023-10-10T06:30:17.101Z,59.11
2023-10-10T06:32:43.752Z,59.04
2023-10-10T06:35:10.097Z,58.53
2023-10-10T06:37:36.471Z,57.73
2023-10-10T06:40:02.912Z,57.48
2023-10-10T06:42:29.492Z,57.00
2023-10-10T06:44:55.748Z,56.63
2023-10-10T06:47:22.166Z,56.80
2023-10-10T06:49:48.663Z,56.41
2023-10-10T06:52:15.092Z,56.21
2023-10-10T06:54:41.539Z,56.02
2023-10-10T06:57:07.955Z,55.99
2023-10-10T06:59:34.417Z,56.05
2023-10-10T07:02:00.857Z,56.06
2023-10-10T07:04:27.382Z,56.38
2023-10-10T07:06:53.780Z,56.67
2023-10-10T07:09:20.194Z,56.60
2023-10-10T07:11:46.655Z,56.31
2023-10-10T07:14:13.313Z,56.11
2023-10-10T07:16:39.729Z,56.03
2023-10-10T07:19:06.165Z,56.30
2023-10-10T07:21:32.568Z,56.13
2023-10-10T07:23:59.134Z,55.82
2023-10-10T07:26:25.587Z,55.38
2023-10-10T07:28:51.986Z,55.39
2023-10-10T07:31:18.465Z,55.67
2023-10-10T07:33:44.856Z,55.37
2023-10-10T07:36:11.255Z,54.87
2023-10-10T07:38:37.750Z,54.72
2023-10-10T07:41:04.043Z,54.04
2023-10-10T07:43:30.482Z,53.72
2023-10-10T07:45:56.920Z,53.76
2023-10-10T07:48:23.353Z,53.88
2023-10-10T07:50:49.794Z,54.02
2023-10-10T07:53:16.232Z,53.95
2023-10-10T07:55:42.565Z,53.81
2023-10-10T07:58:09.094Z,53.69
2023-10-10T08:00:35.506Z,53.88
2023-10-10T08:03:02.126Z,54.33
2023-10-10T08:05:28.552Z,54.03
2023-10-10T08:07:55.134Z,53.93
2023-10-10T08:10:21.558Z,53.77
2023-10-10T08:12:47.962Z,53.93
2023-10-10T08:15:14.356Z,53.69
2023-10-10T08:17:40.920Z,53.72
2023-10-10T08:20:07.234Z,53.52
2023-10-10T08:22:33.641Z,53.19
2023-10-10T08:25:00.057Z,53.13
2023-10-10T08:27:26.488Z,53.24
2023-10-10T08:29:52.935Z,53.59
2023-10-10T08:32:19.382Z,53.42
2023-10-10T08:34:45.695Z,53.60
2023-10-10T08:37:12.236Z,53.40
2023-10-10T08:39:38.663Z,53.38
2023-10-10T08:42:05.097Z,53.45
2023-10-10T08:44:31.471Z,52.78
2023-10-10T08:46:57.895Z,52.55
2023-10-10T08:49:24.328Z,52.65
2023-10-10T08:51:50.771Z,52.82
2023-10-10T08:54:18.111Z,52.64
2023-10-10T08:56:43.648Z,52.82
2023-10-10T08:59:10.152Z,52.89
2023-10-10T09:01:36.594Z,52.92
2023-10-10T09:04:03.039Z,53.04
2023-10-10T09:06:29.642Z,53.28
2023-10-10T09:08:56.056Z,53.36
2023-10-10T09:11:22.567Z,53.21
2023-10-10T09:13:48.863Z,53.34
2023-10-10T09:16:15.393Z,53.34
2023-10-10T09:18:41.814Z,53.43
2023-10-10T09:21:08.324Z,53.44
2023-10-10T09:23:34.721Z,53.39
2023-10-10T09:26:01.198Z,53.28
2023-10-10T09:28:27.654Z,53.38
2023-10-10T09:30:54.197Z,53.42
2023-10-10T09:33:20.711Z,53.38
2023-10-10T09:35:47.308Z,53.46
2023-10-10T09:38:13.629Z,53.56
2023-10-10T09:40:40.118Z,53.45
2023-10-10T09:43:06.451Z,53.45
2023-10-10T09:45:32.867Z,53.01
2023-10-10T09:47:59.310Z,52.83
2023-10-10T09:50:25.757Z,52.78
2023-10-10T09:52:52.188Z,52.54
2023-10-10T09:55:18.556Z,52.34
2023-10-10T09:57:44.891Z,52.44
2023-10-10T10:00:23.858Z,52.42
2023-10-10T10:02:37.816Z,52.51
2023-10-10T10:05:04.252Z,52.41
2023-10-10T10:07:30.728Z,52.26
2023-10-10T10:09:57.190Z,52.04
2023-10-10T10:12:23.557Z,51.68
2023-10-10T10:14:50.083Z,51.61
2023-10-10T10:17:16.627Z,51.56
2023-10-10T10:19:42.960Z,50.97
2023-10-10T10:22:09.489Z,51.13
2023-10-10T10:24:35.867Z,51.43
2023-10-10T10:27:02.440Z,51.55
2023-10-10T10:29:28.899Z,51.54
2023-10-10T10:31:55.426Z,51.04
2023-10-10T10:34:21.759Z,51.22
2023-10-10T10:36:48.200Z,51.12
2023-10-10T10:39:15.642Z,50.76
2023-10-10T10:41:41.069Z,50.76
2023-10-10T10:44:07.464Z,50.77
2023-10-10T10:46:33.929Z,50.74
2023-10-10T10:49:00.256Z,51.04
2023-10-10T10:51:26.793Z,50.92
2023-10-10T10:53:53.313Z,51.07
2023-10-10T10:56:19.837Z,51.08
2023-10-10T10:58:46.101Z,51.11
2023-10-10T11:01:12.647Z,51.17
2023-10-10T11:03:39.003Z,51.20
2023-10-10T11:06:05.537Z,51.17
2023-10-10T11:08:39.525Z,51.27
2023-10-10T11:10:58.319Z,51.31
2023-10-10T11:13:24.675Z,51.41
2023-10-10T11:15:51.215Z,51.38
2023-10-10T11:18:18.256Z,51.34
2023-10-10T11:20:44.136Z,51.36
2023-10-10T11:23:10.516Z,51.49
2023-10-10T11:25:37.022Z,51.95
2023-10-10T11:28:03.455Z,52.23
2023-10-10T11:30:30.103Z,52.62
2023-10-10T11:32:56.651Z,52.77
2023-10-10T11:35:22.996Z,53.02
2023-10-10T11:37:49.377Z,53.00
2023-10-10T11:40:15.841Z,53.29
2023-10-10T11:42:42.204Z,53.41
2023-10-10T11:45:08.790Z,53.35
2023-10-10T11:47:35.140Z,53.53
2023-10-10T11:50:01.624Z,53.58
2023-10-10T11:52:27.932Z,53.14
2023-10-10T11:54:54.421Z,52.99
2023-10-10T11:57:20.784Z,52.77
2023-10-10T11:59:47.329Z,52.62
2023-10-10T12:02:13.792Z,52.68
2023-10-10T12:04:40.092Z,52.55
2023-10-10T12:07:06.988Z,52.40
2023-10-10T12:09:33.021Z,52.50
2023-10-10T12:11:59.462Z,52.47
2023-10-10T12:14:26.040Z,52.55
2023-10-10T12:16:52.438Z,52.55
2023-10-10T12:19:18.824Z,52.68
2023-10-10T12:21:45.199Z,52.65
2023-10-10T12:24:11.743Z,52.82
2023-10-10T12:26:38.183Z,53.05
2023-10-10T12:29:04.634Z,53.30
2023-10-10T12:31:31.194Z,53.29
2023-10-10T12:33:57.684Z,53.39
2023-10-10T12:36:24.141Z,53.36
2023-10-10T12:38:50.675Z,53.50
2023-10-10T12:41:17.218Z,53.53
2023-10-10T12:43:43.600Z,53.50
2023-10-10T12:46:09.962Z,53.47
2023-10-10T12:48:36.524Z,53.16
2023-10-10T12:51:04.167Z,53.22
2023-10-10T12:53:30.938Z,53.19
2023-10-10T12:55:57.428Z,53.25
2023-10-10T12:58:23.952Z,53.31
2023-10-10T13:00:50.344Z,53.28
2023-10-10T13:03:16.915Z,53.10
2023-10-10T13:05:43.224Z,53.11
2023-10-10T13:08:09.687Z,53.15
2023-10-10T13:10:36.106Z,53.07
2023-10-10T13:13:02.677Z,52.89
2023-10-10T13:15:29.078Z,52.96
2023-10-10T13:17:55.728Z,52.83
2023-10-10T13:20:22.083Z,52.77
2023-10-10T13:22:48.588Z,52.60
2023-10-10T13:25:14.943Z,52.64
2023-10-10T13:27:41.442Z,52.51
2023-10-10T13:30:07.793Z,52.53
2023-10-10T13:32:34.375Z,52.65
2023-10-10T13:35:00.698Z,52.70
2023-10-10T13:37:27.086Z,52.54
2023-10-10T13:39:53.443Z,52.60
2023-10-10T13:42:19.936Z,52.60
2023-10-10T13:44:46.440Z,52.61
2023-10-10T13:47:12.776Z,52.63
2023-10-10T13:49:39.147Z,52.58
2023-10-10T13:52:05.691Z,52.53
2023-10-10T13:54:32.207Z,52.59
2023-10-10T13:56:58.695Z,52.50
2023-10-10T13:59:25.312Z,52.50
2023-10-10T14:01:51.850Z,52.40
2023-10-10T14:04:18.534Z,52.20
2023-10-10T14:06:44.581Z,52.33
2023-10-10T14:09:11.131Z,52.29
2023-10-10T14:11:37.606Z,52.25
2023-10-10T14:14:03.923Z,52.37
2023-10-10T14:16:30.469Z,52.33
2023-10-10T14:18:56.849Z,52.40
2023-10-10T14:21:23.276Z,52.37
2023-10-10T14:23:49.699Z,52.52
2023-10-10T14:26:16.144Z,52.50
2023-10-10T14:28:42.504Z,52.52
2023-10-10T14:31:09.049Z,52.37
2023-10-10T14:33:35.482Z,52.45
2023-10-10T14:36:01.838Z,52.40
2023-10-10T14:38:28.190Z,52.39
2023-10-10T14:40:54.635Z,52.40
2023-10-10T14:43:20.995Z,52.34
2023-10-10T14:45:47.520Z,52.32
2023-10-10T14:48:14.038Z,52.30
2023-10-10T14:50:42.593Z,52.35
2023-10-10T14:53:08.901Z,52.37
2023-10-10T14:55:35.368Z,52.36
2023-10-10T14:58:01.761Z,52.27
2023-10-10T15:00:30.617Z,52.33
2023-10-10T15:02:57.213Z,52.30
2023-10-10T15:05:23.489Z,52.35
2023-10-10T15:07:49.853Z,52.48
2023-10-10T15:10:16.282Z,52.56
2023-10-10T15:12:42.788Z,52.64
2023-10-10T15:15:09.109Z,52.67
2023-10-10T15:17:35.582Z,52.73
2023-10-10T15:20:01.902Z,52.93
2023-10-10T15:22:28.268Z,52.97
2023-10-10T15:24:54.735Z,52.97
2023-10-10T15:27:21.164Z,53.02
2023-10-10T15:29:47.763Z,52.99
2023-10-10T15:32:14.143Z,52.96
2023-10-10T15:34:42.433Z,53.06
2023-10-10T15:37:06.958Z,53.00
2023-10-10T15:39:33.355Z,53.06
2023-10-10T15:41:59.788Z,53.10
2023-10-10T15:44:27.473Z,53.16
2023-10-10T15:46:53.846Z,53.16
2023-10-10T15:49:33.536Z,53.22
2023-10-10T15:51:46.751Z,53.25
2023-10-10T15:54:13.141Z,53.32
2023-10-10T15:56:39.504Z,53.32
2023-10-10T15:59:06.039Z,53.72
2023-10-10T16:01:32.465Z,53.74
2023-10-10T16:03:58.954Z,53.54
2023-10-10T16:06:25.218Z,54.58
2023-10-10T16:08:51.733Z,54.29
2023-10-10T16:11:18.078Z,53.98
2023-10-10T16:13:45.158Z,53.84
2023-10-10T16:16:11.520Z,53.71
2023-10-10T16:18:38.083Z,53.61
2023-10-10T16:21:04.386Z,53.61
2023-10-10T16:23:30.781Z,53.60
2023-10-10T16:25:57.106Z,53.56
2023-10-10T16:28:23.630Z,53.56
2023-10-10T16:30:50.037Z,53.59
2023-10-10T16:33:16.572Z,53.62
2023-10-10T16:35:42.904Z,53.66
2023-10-10T16:38:09.291Z,53.86
2023-10-10T16:40:35.703Z,53.85
2023-10-10T16:43:02.195Z,53.75
2023-10-10T16:45:28.602Z,53.70
2023-10-10T16:47:55.066Z,53.81
2023-10-10T16:50:21.389Z,53.90
2023-10-10T16:52:56.619Z,53.88
2023-10-10T16:55:14.225Z,54.05
2023-10-10T16:57:42.982Z,54.19
2023-10-10T17:00:09.364Z,54.25
2023-10-10T17:02:35.896Z,54.43
2023-10-10T17:05:02.684Z,54.43
2023-10-10T17:07:28.678Z,54.66
2023-10-10T17:09:56.222Z,54.69
2023-10-10T17:12:22.638Z,54.81
2023-10-10T17:14:49.126Z,54.96
2023-10-10T17:17:15.530Z,55.01
2023-10-10T17:19:42.019Z,55.06
2023-10-10T17:22:08.395Z,55.06
2023-10-10T17:24:34.755Z,55.10
2023-10-10T17:27:01.234Z,55.17
2023-10-10T17:29:27.659Z,55.28
2023-10-10T17:31:54.058Z,55.34
2023-10-10T17:34:20.452Z,55.40
2023-10-10T17:36:46.882Z,55.44
2023-10-10T17:39:13.262Z,55.49
2023-10-10T17:41:39.686Z,55.50
2023-10-10T17:44:06.015Z,55.59
2023-10-10T17:46:32.490Z,55.76
2023-10-10T17:48:59.013Z,57.49
2023-10-10T17:51:25.644Z,57.46
2023-10-10T17:53:51.832Z,56.92
2023-10-10T17:56:18.125Z,56.02
2023-10-10T17:58:44.530Z,55.88
2023-10-10T18:01:11.043Z,55.85
2023-10-10T18:03:37.481Z,55.79
2023-10-10T18:06:03.848Z,55.95
2023-10-10T18:08:30.237Z,56.09
2023-10-10T18:10:56.608Z,56.14
2023-10-10T18:13:23.581Z,56.25
2023-10-10T18:15:50.048Z,56.29
2023-10-10T18:18:16.612Z,56.30
2023-10-10T18:20:43.153Z,56.38
2023-10-10T18:23:09.479Z,56.61
2023-10-10T18:25:35.930Z,56.63
2023-10-10T18:28:02.311Z,56.73
2023-10-10T18:30:28.835Z,56.78
2023-10-10T18:32:55.258Z,56.83
2023-10-10T18:35:21.663Z,56.74
2023-10-10T18:37:48.014Z,56.78
2023-10-10T18:40:14.508Z,56.88
2023-10-10T18:42:41.056Z,57.13
2023-10-10T18:45:07.637Z,57.38
2023-10-10T18:47:34.081Z,57.55
2023-10-10T18:50:00.429Z,57.87
2023-10-10T18:52:26.820Z,58.51
2023-10-10T18:54:53.420Z,58.17
2023-10-10T18:57:19.823Z,57.96
2023-10-10T18:59:46.252Z,58.02
2023-10-10T19:02:12.707Z,57.97
2023-10-10T19:04:39.323Z,57.90
2023-10-10T19:07:05.724Z,57.88
2023-10-10T19:09:32.173Z,57.95
2023-10-10T19:11:59.138Z,58.05
2023-10-10T19:14:26.127Z,58.14
2023-10-10T19:16:52.469Z,58.16
2023-10-10T19:19:19.027Z,58.18
2023-10-10T19:21:45.355Z,58.26
2023-10-10T19:24:11.820Z,58.31
2023-10-10T19:26:38.134Z,58.42
2023-10-10T19:29:04.570Z,58.52
2023-10-10T19:31:30.977Z,58.80
2023-10-10T19:33:57.431Z,59.02
2023-10-10T19:36:23.752Z,59.17
2023-10-10T19:38:50.225Z,59.28
2023-10-10T19:41:16.545Z,59.40
2023-10-10T19:43:42.971Z,59.39
2023-10-10T19:46:09.377Z,59.38
2023-10-10T19:48:35.890Z,59.30
2023-10-10T19:51:02.301Z,59.36
2023-10-10T19:53:28.785Z,59.54
2023-10-10T19:55:55.064Z,60.16
2023-10-10T19:58:22.388Z,60.18
2023-10-10T20:00:48.487Z,59.69
2023-10-10T20:03:14.993Z,59.54
2023-10-10T20:05:41.431Z,59.43
2023-10-10T20:08:07.839Z,59.46
2023-10-10T20:10:34.247Z,59.56
2023-10-10T20:13:00.681Z,59.68
2023-10-10T20:15:27.097Z,59.92
2023-10-10T20:17:53.649Z,60.13
2023-10-10T20:20:19.970Z,60.32
2023-10-10T20:22:46.443Z,60.47
2023-10-10T20:25:12.801Z,60.55
2023-10-10T20:27:39.203Z,60.62
2023-10-10T20:30:05.822Z,60.71
2023-10-10T20:32:32.337Z,60.86
2023-10-10T20:34:58.635Z,61.49
2023-10-10T20:37:25.167Z,61.69
2023-10-10T20:39:54.156Z,61.67
2023-10-10T20:42:20.564Z,61.61
2023-10-10T20:44:48.147Z,61.62
2023-10-10T20:47:14.661Z,61.54
2023-10-10T20:49:41.219Z,61.59
2023-10-10T20:52:07.761Z,61.49
2023-10-10T20:54:34.275Z,61.61
2023-10-10T20:57:00.753Z,61.67
2023-10-10T20:59:27.360Z,61.81
2023-10-10T21:01:53.761Z,62.07
2023-10-10T21:04:20.371Z,62.32
2023-10-10T21:06:46.737Z,62.49
2023-10-10T21:09:13.377Z,62.75
2023-10-10T21:11:39.719Z,63.05
2023-10-10T21:14:06.192Z,63.35
2023-10-10T21:16:32.707Z,63.54
2023-10-10T21:18:59.289Z,63.74
2023-10-10T21:21:25.695Z,63.78
2023-10-10T21:23:52.161Z,63.85
2023-10-10T21:26:18.524Z,63.77
2023-10-10T21:28:44.942Z,63.76
2023-10-10T21:31:11.462Z,63.79
2023-10-10T21:33:38.163Z,63.72
2023-10-10T21:36:04.357Z,63.74
2023-10-10T21:38:30.854Z,63.80
2023-10-10T21:40:57.204Z,63.82
2023-10-10T21:43:23.648Z,63.90
2023-10-10T21:45:50.182Z,63.99
2023-10-10T21:48:16.799Z,64.09
2023-10-10T21:50:43.134Z,64.04
2023-10-10T21:53:09.582Z,65.64
2023-10-10T21:55:35.975Z,66.90
2023-10-10T21:58:02.428Z,65.21
2023-10-10T22:00:28.776Z,64.43
2023-10-10T22:02:55.334Z,64.11
2023-10-10T22:05:21.581Z,63.96
2023-10-10T22:07:48.313Z,64.08
2023-10-10T22:10:14.634Z,64.04
2023-10-10T22:12:41.015Z,63.96
2023-10-10T22:15:07.432Z,63.88
2023-10-10T22:17:33.994Z,63.86
2023-10-10T22:20:00.375Z,63.95
2023-10-10T22:22:26.886Z,63.92
2023-10-10T22:24:53.236Z,63.94
2023-10-10T22:27:19.745Z,63.97
2023-10-10T22:29:46.179Z,63.90
2023-10-10T22:32:12.828Z,63.88
2023-10-10T22:34:39.351Z,63.86
2023-10-10T22:37:08.884Z,63.82
2023-10-10T22:39:32.174Z,63.87
2023-10-10T22:41:58.694Z,63.90
2023-10-10T22:44:25.018Z,63.95
2023-10-10T22:46:51.507Z,64.01
2023-10-10T22:49:18.025Z,63.99
2023-10-10T22:51:44.409Z,64.10
2023-10-10T22:54:10.883Z,64.17
2023-10-10T22:56:37.379Z,64.33
2023-10-10T22:59:03.787Z,64.29
2023-10-10T23:01:30.370Z,64.24
2023-10-10T23:03:56.912Z,64.24
2023-10-10T23:06:23.105Z,64.37
2023-10-10T23:08:49.567Z,64.26
2023-10-10T23:11:15.977Z,64.20
2023-10-10T23:13:42.386Z,64.16
2023-10-10T23:16:08.890Z,64.22
2023-10-10T23:18:35.346Z,64.26
2023-10-10T23:21:01.752Z,64.31
2023-10-10T23:23:28.129Z,64.23
2023-10-10T23:25:54.692Z,64.13
2023-10-10T23:28:21.051Z,64.06
2023-10-10T23:30:47.581Z,64.09
2023-10-10T23:33:14.539Z,64.19
2023-10-10T23:35:40.640Z,64.22
2023-10-10T23:38:07.139Z,64.49
2023-10-10T23:40:33.461Z,64.81
2023-10-10T23:42:59.909Z,64.85
2023-10-10T23:45:26.448Z,64.97
2023-10-10T23:47:52.806Z,64.87
2023-10-10T23:50:19.181Z,64.77
2023-10-10T23:52:45.560Z,64.74
2023-10-10T23:55:12.053Z,64.85
2023-10-10T23:57:38.438Z,64.84
